Time;durP1;ratioP1;P1;durP2;ratioP2;P2;SDS_P1;SDS_P2;PMS_P1;PMS_P2;Temp;Humidity;BMP_temperature;BMP_pressure;BME280_temperature;BME280_humidity;BME280_pressure;Samples;Min_cycle;Max_cycle;Signal;HPM_P1;HPM_P2
2023/05/07 00:01:57;;;;;;;39.88;22.92;;;;;;;;;;5025154;28;20126;-77
2023/05/07 00:04:24;;;;;;;45.83;24.88;;;;;;;;;;5027824;28;20022;-77
2023/05/07 00:06:50;;;;;;;49.47;24.98;;;;;;;;;;5027591;28;20030;-77
2023/05/07 00:09:16;;;;;;;50.97;26.50;;;;;;;;;;5029432;28;20054;-76
2023/05/07 00:11:42;;;;;;;53.92;26.83;;;;;;;;;;5026572;28;20089;-78
2023/05/07 00:14:09;;;;;;;46.35;25.08;;;;;;;;;;5042713;28;20038;-77
2023/05/07 00:16:35;;;;;;;46.50;23.88;;;;;;;;;;5028896;28;20062;-77
2023/05/07 00:19:01;;;;;;;39.83;23.33;;;;;;;;;;5029854;28;20021;-76
2023/05/07 00:21:27;;;;;;;46.03;22.08;;;;;;;;;;5029185;28;20018;-77
2023/05/07 00:23:53;;;;;;;35.67;21.02;;;;;;;;;;5021768;28;20045;-77
2023/05/07 00:26:20;;;;;;;45.45;23.27;;;;;;;;;;5026806;28;20101;-77
2023/05/07 00:28:46;;;;;;;38.50;22.42;;;;;;;;;;5030116;28;20052;-78
2023/05/07 00:31:12;;;;;;;42.53;23.92;;;;;;;;;;5028531;28;20022;-78
2023/05/07 00:33:38;;;;;;;49.90;24.17;;;;;;;;;;5043781;28;20037;-77
2023/05/07 00:36:05;;;;;;;58.97;26.70;;;;;;;;;;5027790;28;20654;-77
2023/05/07 00:38:48;;;;;;;53.28;28.27;;;;;;;;;;5088374;28;20400;-78
2023/05/07 00:41:14;;;;;;;51.58;25.60;;;;;;;;;;5063104;28;20020;-78
2023/05/07 00:43:40;;;;;;;43.33;24.63;;;;;;;;;;5084509;28;20124;-77
2023/05/07 00:46:06;;;;;;;45.60;24.33;;;;;;;;;;5076350;28;20021;-78
2023/05/07 00:48:33;;;;;;;44.75;25.48;;;;;;;;;;5083363;28;20031;-77
2023/05/07 00:50:59;;;;;;;58.95;26.27;;;;;;;;;;5083185;28;20029;-78
2023/05/07 00:53:26;;;;;;;50.97;26.42;;;;;;;;;;5081980;28;20032;-78
2023/05/07 00:55:52;;;;;;;51.10;25.75;;;;;;;;;;5084676;28;20080;-78
2023/05/07 00:58:18;;;;;;;38.87;21.30;;;;;;;;;;5084120;28;20047;-78
2023/05/07 01:00:45;;;;;;;30.25;17.70;;;;;;;;;;5074188;28;20020;-78
2023/05/07 01:03:11;;;;;;;36.60;20.63;;;;;;;;;;5084272;28;20036;-77
2023/05/07 01:05:37;;;;;;;36.25;19.10;;;;;;;;;;5072314;28;20035;-77
2023/05/07 01:08:03;;;;;;;47.20;23.52;;;;;;;;;;5084510;28;20013;-77
2023/05/07 01:10:33;;;;;;;42.45;21.52;;;;;;;;;;5075884;28;20187;-78
2023/05/07 01:13:02;;;;;;;44.38;23.63;;;;;;;;;;5070995;28;20021;-77
2023/05/07 01:15:28;;;;;;;32.25;18.55;;;;;;;;;;5083544;28;20021;-78
2023/05/07 01:17:57;;;;;;;30.77;18.48;;;;;;;;;;5074475;28;20043;-78
2023/05/07 01:20:23;;;;;;;25.95;16.80;;;;;;;;;;5083680;28;20020;-77
2023/05/07 01:22:49;;;;;;;34.42;19.77;;;;;;;;;;5089724;28;20025;-78
2023/05/07 01:25:18;;;;;;;35.40;18.88;;;;;;;;;;5088737;28;20017;-79
2023/05/07 01:27:44;;;;;;;25.25;15.80;;;;;;;;;;5086142;28;20009;-80
2023/05/07 01:30:11;;;;;;;28.58;15.10;;;;;;;;;;5089693;28;20507;-77
2023/05/07 01:32:56;;;;;;;21.52;13.45;;;;;;;;;;5088749;28;20021;-77
2023/05/07 01:35:23;;;;;;;27.83;14.98;;;;;;;;;;5075004;28;20034;-76
2023/05/07 01:37:53;;;;;;;27.08;13.68;;;;;;;;;;5073532;28;20039;-78
2023/05/07 01:40:19;;;;;;;20.98;13.02;;;;;;;;;;5083530;28;20028;-77
2023/05/07 01:42:46;;;;;;;21.60;12.05;;;;;;;;;;5072093;28;20089;-78
2023/05/07 01:45:12;;;;;;;15.45;10.75;;;;;;;;;;5069876;28;20048;-77
2023/05/07 01:47:38;;;;;;;21.85;12.32;;;;;;;;;;5084272;28;20048;-77
2023/05/07 01:50:08;;;;;;;17.92;11.60;;;;;;;;;;5075546;28;20025;-77
2023/05/07 01:52:34;;;;;;;27.02;14.38;;;;;;;;;;5068842;28;20014;-78
2023/05/07 01:55:00;;;;;;;22.98;12.25;;;;;;;;;;5068697;28;20114;-77
2023/05/07 01:57:26;;;;;;;21.15;12.60;;;;;;;;;;5056767;28;20033;-76
2023/05/07 01:59:53;;;;;;;21.80;11.27;;;;;;;;;;5062683;28;20368;-78
2023/05/07 02:02:19;;;;;;;20.02;11.73;;;;;;;;;;5070490;28;20040;-78
2023/05/07 02:04:45;;;;;;;21.08;11.30;;;;;;;;;;5056382;28;20064;-78
2023/05/07 02:07:11;;;;;;;23.02;12.52;;;;;;;;;;5068193;28;20025;-77
2023/05/07 02:09:37;;;;;;;19.77;10.90;;;;;;;;;;5060844;28;20084;-77
2023/05/07 02:12:05;;;;;;;22.00;11.40;;;;;;;;;;5075916;28;20044;-78
2023/05/07 02:14:31;;;;;;;20.38;10.68;;;;;;;;;;5069955;28;20033;-77
2023/05/07 02:16:59;;;;;;;18.33;11.33;;;;;;;;;;5060462;28;20033;-77
2023/05/07 02:19:26;;;;;;;22.17;11.73;;;;;;;;;;5070650;28;20025;-78
2023/05/07 02:21:52;;;;;;;22.90;11.50;;;;;;;;;;5070391;28;20040;-76
2023/05/07 02:24:21;;;;;;;22.50;13.88;;;;;;;;;;5057853;28;20061;-78
2023/05/07 02:26:47;;;;;;;28.70;14.13;;;;;;;;;;5077521;28;20040;-77
2023/05/07 02:29:13;;;;;;;23.03;13.40;;;;;;;;;;5069705;28;20024;-76
2023/05/07 02:31:39;;;;;;;27.57;15.03;;;;;;;;;;5067480;28;20083;-77
2023/05/07 02:34:06;;;;;;;22.20;14.07;;;;;;;;;;5070718;28;20037;-77
2023/05/07 02:36:32;;;;;;;23.53;13.93;;;;;;;;;;5070368;28;20548;-76
2023/05/07 02:39:00;;;;;;;25.53;14.77;;;;;;;;;;5069169;28;20029;-79
2023/05/07 02:41:27;;;;;;;25.70;15.07;;;;;;;;;;5058255;28;20061;-77
2023/05/07 02:43:53;;;;;;;25.13;14.70;;;;;;;;;;5072725;28;20093;-77
2023/05/07 02:46:20;;;;;;;30.33;15.67;;;;;;;;;;5068405;28;20021;-77
2023/05/07 02:48:46;;;;;;;28.10;15.80;;;;;;;;;;5058024;28;20013;-77
2023/05/07 02:51:12;;;;;;;39.60;18.70;;;;;;;;;;5059150;28;20033;-78
2023/05/07 02:53:38;;;;;;;26.70;16.13;;;;;;;;;;5060413;28;20107;-77
2023/05/07 02:56:05;;;;;;;24.80;15.47;;;;;;;;;;5066674;28;20052;-77
2023/05/07 02:58:31;;;;;;;29.63;17.07;;;;;;;;;;5070022;28;20033;-77
2023/05/07 03:00:57;;;;;;;39.60;18.70;;;;;;;;;;5067153;28;20029;-76
2023/05/07 03:03:23;;;;;;;29.00;17.57;;;;;;;;;;5060696;28;20064;-77
2023/05/07 03:05:52;;;;;;;34.57;17.33;;;;;;;;;;5057221;28;20048;-78
2023/05/07 03:08:18;;;;;;;23.50;15.40;;;;;;;;;;5067363;28;20148;-78
2023/05/07 03:10:46;;;;;;;29.47;16.53;;;;;;;;;;5068243;28;20013;-76
2023/05/07 03:13:12;;;;;;;30.77;16.00;;;;;;;;;;5067587;28;20029;-77
2023/05/07 03:15:41;;;;;;;24.47;15.27;;;;;;;;;;5067681;28;20036;-78
2023/05/07 03:18:07;;;;;;;33.63;17.97;;;;;;;;;;5066597;28;20044;-77
2023/05/07 03:20:33;;;;;;;27.13;15.90;;;;;;;;;;5055567;28;20029;-77
2023/05/07 03:22:59;;;;;;;30.27;16.07;;;;;;;;;;5066571;28;20028;-77
2023/05/07 03:25:25;;;;;;;29.67;18.17;;;;;;;;;;5068911;28;20032;-77
2023/05/07 03:27:51;;;;;;;36.17;18.23;;;;;;;;;;5065706;28;20025;-79
2023/05/07 03:30:17;;;;;;;31.90;15.50;;;;;;;;;;5068518;28;20034;-77
2023/05/07 03:32:44;;;;;;;29.43;16.10;;;;;;;;;;5066374;28;20092;-77
2023/05/07 03:35:10;;;;;;;24.03;15.87;;;;;;;;;;5058254;28;20231;-77
2023/05/07 03:37:36;;;;;;;28.73;16.33;;;;;;;;;;5073514;28;20051;-77
2023/05/07 03:40:02;;;;;;;24.70;15.80;;;;;;;;;;5066397;28;20022;-77
2023/05/07 03:42:29;;;;;;;26.67;15.47;;;;;;;;;;5066051;28;20059;-76
2023/05/07 03:44:55;;;;;;;31.87;16.67;;;;;;;;;;5068295;28;21251;-77
2023/05/07 03:47:21;;;;;;;27.97;16.53;;;;;;;;;;5074163;28;20041;-78
2023/05/07 03:49:49;;;;;;;30.37;16.77;;;;;;;;;;5068499;28;20031;-79
2023/05/07 03:52:15;;;;;;;30.37;17.83;;;;;;;;;;5057364;28;20022;-77
2023/05/07 03:54:43;;;;;;;31.90;18.50;;;;;;;;;;5057468;28;20040;-77
2023/05/07 03:57:09;;;;;;;29.57;17.30;;;;;;;;;;5067826;28;20049;-77
2023/05/07 03:59:35;;;;;;;36.50;18.47;;;;;;;;;;5068246;28;20029;-78
2023/05/07 04:02:01;;;;;;;33.57;20.23;;;;;;;;;;5066629;28;20060;-78
2023/05/07 04:04:32;;;;;;;33.60;17.90;;;;;;;;;;5067156;28;20032;-78
2023/05/07 04:07:00;;;;;;;39.33;18.63;;;;;;;;;;5066672;28;20026;-78
2023/05/07 04:09:26;;;;;;;32.03;18.10;;;;;;;;;;5057953;28;20025;-76
2023/05/07 04:11:53;;;;;;;37.57;18.47;;;;;;;;;;5068279;28;20059;-77
2023/05/07 04:14:21;;;;;;;33.57;18.10;;;;;;;;;;5057168;28;20017;-76
2023/05/07 04:16:47;;;;;;;31.23;17.43;;;;;;;;;;5065980;28;20060;-76
2023/05/07 04:19:13;;;;;;;30.77;17.40;;;;;;;;;;5060923;28;20018;-77
2023/05/07 04:21:39;;;;;;;27.23;14.97;;;;;;;;;;5066780;28;20049;-78
2023/05/07 04:24:06;;;;;;;31.43;16.37;;;;;;;;;;5057995;28;20029;-76
2023/05/07 04:26:32;;;;;;;27.03;15.63;;;;;;;;;;5067194;28;20014;-78
2023/05/07 04:28:59;;;;;;;22.00;14.03;;;;;;;;;;5068397;28;20021;-76
2023/05/07 04:31:25;;;;;;;25.80;14.73;;;;;;;;;;5066592;28;20068;-77
2023/05/07 04:33:51;;;;;;;26.43;14.33;;;;;;;;;;5072238;28;20055;-76
2023/05/07 04:36:17;;;;;;;20.60;13.03;;;;;;;;;;5067404;28;20022;-77
2023/05/07 04:38:43;;;;;;;19.37;11.80;;;;;;;;;;5067491;28;20027;-77
2023/05/07 04:41:09;;;;;;;19.43;12.47;;;;;;;;;;5055861;28;20033;-77
2023/05/07 04:43:35;;;;;;;23.53;13.77;;;;;;;;;;5064245;28;20102;-77
2023/05/07 04:46:02;;;;;;;22.40;13.07;;;;;;;;;;5068043;28;20057;-77
2023/05/07 04:48:28;;;;;;;22.97;12.17;;;;;;;;;;5067377;28;20070;-78
2023/05/07 04:50:54;;;;;;;19.20;12.13;;;;;;;;;;5072383;28;20037;-76
2023/05/07 04:53:28;;;;;;;25.70;13.90;;;;;;;;;;5067319;28;20032;-76
2023/05/07 04:55:57;;;;;;;20.27;11.90;;;;;;;;;;5072771;28;20013;-77
2023/05/07 04:58:24;;;;;;;19.93;12.37;;;;;;;;;;5067144;28;20041;-77
2023/05/07 05:00:50;;;;;;;18.00;11.33;;;;;;;;;;5055737;28;20021;-76
2023/05/07 05:03:16;;;;;;;17.90;10.33;;;;;;;;;;5066524;28;21021;-76
2023/05/07 05:05:42;;;;;;;14.70;10.10;;;;;;;;;;5066229;28;20034;-76
2023/05/07 05:08:08;;;;;;;17.95;10.75;;;;;;;;;;5066215;28;20034;-77
2023/05/07 05:10:34;;;;;;;33.50;11.55;;;;;;;;;;5065439;28;20029;-77
2023/05/07 05:13:00;;;;;;;19.80;11.47;;;;;;;;;;5064250;28;20030;-77
2023/05/07 05:15:26;;;;;;;25.33;13.15;;;;;;;;;;5067312;28;20026;-77
2023/05/07 05:17:52;;;;;;;23.90;13.67;;;;;;;;;;5066048;28;20105;-77
2023/05/07 05:20:18;;;;;;;20.57;11.03;;;;;;;;;;5056763;28;20014;-77
2023/05/07 05:22:44;;;;;;;17.88;10.32;;;;;;;;;;5067303;28;20033;-77
2023/05/07 05:25:13;;;;;;;22.67;16.35;;;;;;;;;;5070282;28;20104;-77
2023/05/07 05:27:39;;;;;;;17.55;10.88;;;;;;;;;;5072944;28;20032;-78
2023/05/07 05:30:06;;;;;;;20.93;11.77;;;;;;;;;;5059485;28;20024;-75
2023/05/07 05:32:38;;;;;;;16.48;10.27;;;;;;;;;;5076494;28;20039;-77
2023/05/07 05:35:04;;;;;;;14.75;10.13;;;;;;;;;;5071586;28;20041;-77
2023/05/07 05:37:31;;;;;;;15.32;9.88;;;;;;;;;;5059527;28;20035;-77
2023/05/07 05:40:00;;;;;;;11.32;8.05;;;;;;;;;;5070403;28;20092;-77
2023/05/07 05:42:26;;;;;;;13.02;7.88;;;;;;;;;;5069797;28;20093;-76
2023/05/07 05:44:52;;;;;;;13.93;7.28;;;;;;;;;;5059205;28;20029;-76
2023/05/07 05:47:18;;;;;;;12.88;7.72;;;;;;;;;;5071401;28;20205;-76
2023/05/07 05:49:44;;;;;;;11.88;7.65;;;;;;;;;;5069204;28;20040;-76
2023/05/07 05:52:14;;;;;;;13.57;6.78;;;;;;;;;;5071248;28;20017;-76
2023/05/07 05:54:40;;;;;;;7.43;5.40;;;;;;;;;;5068353;28;20079;-77
2023/05/07 05:57:06;;;;;;;7.43;5.30;;;;;;;;;;5069984;28;20041;-76
2023/05/07 05:59:32;;;;;;;13.10;6.15;;;;;;;;;;5068307;28;20029;-77
2023/05/07 06:01:58;;;;;;;8.95;6.53;;;;;;;;;;5072387;28;20021;-79
2023/05/07 06:04:24;;;;;;;9.32;5.55;;;;;;;;;;5069674;28;20052;-76
2023/05/07 06:06:50;;;;;;;10.48;5.88;;;;;;;;;;5072330;28;20025;-76
2023/05/07 06:09:16;;;;;;;9.05;5.93;;;;;;;;;;5063347;28;20048;-78
2023/05/07 06:11:42;;;;;;;9.98;4.95;;;;;;;;;;5070260;28;20041;-80
2023/05/07 06:14:08;;;;;;;9.50;4.28;;;;;;;;;;5067958;28;20029;-75
2023/05/07 06:16:34;;;;;;;10.93;5.32;;;;;;;;;;5060840;28;20032;-77
2023/05/07 06:19:00;;;;;;;7.07;4.70;;;;;;;;;;5063746;28;20032;-76
2023/05/07 06:21:26;;;;;;;7.45;4.45;;;;;;;;;;5070970;28;20041;-76
2023/05/07 06:23:52;;;;;;;11.65;6.30;;;;;;;;;;5070197;28;20135;-77
2023/05/07 06:26:18;;;;;;;8.90;4.97;;;;;;;;;;5070662;28;20034;-76
2023/05/07 06:28:44;;;;;;;6.53;4.50;;;;;;;;;;5068399;28;20104;-76
2023/05/07 06:31:14;;;;;;;7.00;6.07;;;;;;;;;;5055560;28;20047;-76
2023/05/07 06:33:40;;;;;;;6.90;3.78;;;;;;;;;;5065435;28;20053;-77
2023/05/07 06:36:07;;;;;;;9.07;4.25;;;;;;;;;;5071905;28;20597;-76
2023/05/07 06:38:33;;;;;;;8.70;5.15;;;;;;;;;;5063596;28;20113;-76
2023/05/07 06:40:59;;;;;;;9.43;5.20;;;;;;;;;;5071226;28;20021;-77
2023/05/07 06:43:25;;;;;;;7.55;4.40;;;;;;;;;;5061801;28;20025;-75
2023/05/07 06:45:51;;;;;;;3.90;2.60;;;;;;;;;;5057038;28;20033;-76
2023/05/07 06:48:17;;;;;;;6.22;4.15;;;;;;;;;;5068351;28;20030;-76
2023/05/07 06:50:43;;;;;;;5.45;3.78;;;;;;;;;;5065697;28;20055;-76
2023/05/07 06:53:09;;;;;;;4.68;2.30;;;;;;;;;;5065241;28;20043;-76
2023/05/07 06:55:35;;;;;;;6.00;2.45;;;;;;;;;;5056971;28;20040;-76
2023/05/07 06:58:03;;;;;;;6.65;4.80;;;;;;;;;;5066089;28;20033;-78
2023/05/07 07:00:29;;;;;;;8.68;3.00;;;;;;;;;;5071313;28;20036;-76
2023/05/07 07:02:55;;;;;;;7.78;2.90;;;;;;;;;;5056032;28;20025;-76
2023/05/07 07:05:21;;;;;;;4.60;2.28;;;;;;;;;;5068155;28;20051;-77
2023/05/07 07:07:52;;;;;;;4.03;2.10;;;;;;;;;;5076306;28;20053;-76
2023/05/07 07:10:22;;;;;;;4.95;2.70;;;;;;;;;;5064454;28;20049;-76
2023/05/07 07:12:48;;;;;;;3.45;2.45;;;;;;;;;;5065702;28;20093;-77
2023/05/07 07:15:14;;;;;;;4.57;2.45;;;;;;;;;;5060111;28;20450;-76
2023/05/07 07:17:40;;;;;;;5.53;2.08;;;;;;;;;;5053117;28;20037;-77
2023/05/07 07:20:07;;;;;;;5.55;3.40;;;;;;;;;;5060912;28;20177;-77
2023/05/07 07:22:33;;;;;;;4.53;3.63;;;;;;;;;;5061373;28;20033;-76
2023/05/07 07:24:59;;;;;;;6.63;4.00;;;;;;;;;;5055372;28;20021;-77
2023/05/07 07:27:25;;;;;;;6.40;2.55;;;;;;;;;;5053888;28;20057;-76
2023/05/07 07:29:51;;;;;;;3.55;2.20;;;;;;;;;;5062711;28;20059;-77
2023/05/07 07:32:17;;;;;;;4.68;2.03;;;;;;;;;;5061976;28;20067;-77
2023/05/07 07:34:43;;;;;;;3.75;2.15;;;;;;;;;;5058008;28;20040;-76
2023/05/07 07:37:12;;;;;;;4.80;3.03;;;;;;;;;;5061329;28;20029;-78
2023/05/07 07:39:37;;;;;;;4.10;2.40;;;;;;;;;;5052695;28;20034;-78
2023/05/07 07:42:04;;;;;;;5.30;1.70;;;;;;;;;;5046650;28;20026;-77
2023/05/07 07:44:30;;;;;;;5.10;2.80;;;;;;;;;;5052362;28;20020;-77
2023/05/07 07:46:56;;;;;;;7.43;2.10;;;;;;;;;;5058586;28;20094;-77
2023/05/07 07:49:22;;;;;;;4.07;2.83;;;;;;;;;;5050756;28;20093;-79
2023/05/07 07:51:48;;;;;;;2.92;2.22;;;;;;;;;;5061585;28;20033;-77
2023/05/07 07:54:14;;;;;;;2.65;1.77;;;;;;;;;;5064772;28;20033;-77
2023/05/07 07:56:40;;;;;;;6.65;1.70;;;;;;;;;;5067546;28;20055;-76
2023/05/07 07:59:06;;;;;;;3.80;1.80;;;;;;;;;;5069356;28;20026;-76
2023/05/07 08:01:32;;;;;;;3.95;2.10;;;;;;;;;;5069033;28;20036;-77
2023/05/07 08:03:58;;;;;;;4.45;2.88;;;;;;;;;;5066862;28;20131;-78
2023/05/07 08:06:25;;;;;;;4.75;2.40;;;;;;;;;;5066086;28;20087;-78
2023/05/07 08:08:51;;;;;;;4.78;2.17;;;;;;;;;;5065905;28;20059;-77
2023/05/07 08:11:17;;;;;;;5.82;2.55;;;;;;;;;;5064634;28;20025;-79
2023/05/07 08:13:45;;;;;;;5.00;2.47;;;;;;;;;;5048709;28;20013;-77
2023/05/07 08:16:11;;;;;;;4.30;2.17;;;;;;;;;;5066708;28;20059;-78
2023/05/07 08:18:37;;;;;;;6.93;3.58;;;;;;;;;;5062138;28;20045;-79
2023/05/07 08:21:03;;;;;;;7.00;2.33;;;;;;;;;;5055464;28;20029;-78
2023/05/07 08:23:29;;;;;;;3.58;1.88;;;;;;;;;;5058119;28;20057;-77
2023/05/07 08:25:55;;;;;;;5.20;3.47;;;;;;;;;;5051419;28;20116;-79
2023/05/07 08:28:21;;;;;;;3.50;2.15;;;;;;;;;;5048225;28;20060;-79
2023/05/07 08:30:47;;;;;;;4.05;2.13;;;;;;;;;;5045839;28;20116;-80
2023/05/07 08:33:13;;;;;;;4.43;3.08;;;;;;;;;;5051253;28;20052;-79
2023/05/07 08:35:39;;;;;;;5.78;2.53;;;;;;;;;;5055224;28;20457;-78
2023/05/07 08:38:05;;;;;;;5.32;2.22;;;;;;;;;;5045702;28;20048;-79
2023/05/07 08:40:34;;;;;;;4.00;1.75;;;;;;;;;;5038698;28;20036;-79
2023/05/07 08:43:01;;;;;;;3.67;2.55;;;;;;;;;;5038599;28;20029;-79
2023/05/07 08:45:28;;;;;;;5.47;2.28;;;;;;;;;;5047662;28;20116;-79
2023/05/07 08:47:57;;;;;;;2.90;2.10;;;;;;;;;;5049219;28;20391;-80
2023/05/07 08:50:23;;;;;;;3.15;2.15;;;;;;;;;;5053903;28;20091;-79
2023/05/07 08:52:49;;;;;;;6.05;1.90;;;;;;;;;;5040465;28;20032;-78
2023/05/07 08:55:15;;;;;;;3.88;1.92;;;;;;;;;;5051974;28;20034;-79
2023/05/07 08:57:41;;;;;;;3.38;2.40;;;;;;;;;;5054326;28;21883;-78
2023/05/07 09:00:08;;;;;;;5.70;3.00;;;;;;;;;;5051645;28;20062;-79
2023/05/07 09:02:36;;;;;;;2.47;1.75;;;;;;;;;;5058685;28;20029;-78
2023/05/07 09:05:02;;;;;;;5.47;1.65;;;;;;;;;;5054855;28;20025;-79
2023/05/07 09:07:28;;;;;;;3.30;1.77;;;;;;;;;;5054687;28;20029;-79
2023/05/07 09:09:57;;;;;;;3.50;2.20;;;;;;;;;;5056305;28;20041;-78
2023/05/07 09:12:23;;;;;;;4.10;1.60;;;;;;;;;;5067452;28;20027;-79
2023/05/07 09:14:50;;;;;;;6.78;2.22;;;;;;;;;;5064929;28;20029;-79
2023/05/07 09:17:16;;;;;;;2.30;1.63;;;;;;;;;;5066324;28;20157;-78
2023/05/07 09:19:45;;;;;;;4.50;2.60;;;;;;;;;;5066856;28;20032;-78
2023/05/07 09:22:11;;;;;;;3.42;1.60;;;;;;;;;;5062410;28;20033;-79
2023/05/07 09:24:37;;;;;;;3.00;1.58;;;;;;;;;;5060369;28;20072;-80
2023/05/07 09:27:08;;;;;;;5.25;2.00;;;;;;;;;;5062441;28;20037;-81
2023/05/07 09:29:37;;;;;;;4.07;1.92;;;;;;;;;;5064076;28;20044;-79
2023/05/07 09:32:06;;;;;;;4.00;1.80;;;;;;;;;;5064683;28;20036;-80
2023/05/07 09:34:32;;;;;;;2.33;1.80;;;;;;;;;;5066808;28;20025;-77
2023/05/07 09:37:05;;;;;;;3.72;2.00;;;;;;;;;;5063876;28;20448;-79
2023/05/07 09:39:31;;;;;;;;;;;;;;;;;;5065307;28;20028;-79
2023/05/07 09:41:58;;;;;;;3.47;2.00;;;;;;;;;;5059423;28;19920;-79
2023/05/07 09:44:24;;;;;;;6.35;2.33;;;;;;;;;;5063246;28;20025;-78
2023/05/07 09:46:55;;;;;;;2.60;1.70;;;;;;;;;;5060231;28;20029;-79
2023/05/07 09:49:22;;;;;;;5.45;2.10;;;;;;;;;;5059197;28;20029;-79
2023/05/07 09:51:52;;;;;;;2.78;2.22;;;;;;;;;;5065542;28;20025;-80
2023/05/07 09:54:20;;;;;;;5.35;2.22;;;;;;;;;;5060673;28;20055;-80
2023/05/07 09:56:48;;;;;;;4.30;1.88;;;;;;;;;;5061722;28;20028;-80
2023/05/07 09:59:15;;;;;;;2.35;1.38;;;;;;;;;;5046499;28;20067;-80
2023/05/07 10:01:42;;;;;;;2.28;1.50;;;;;;;;;;5058145;28;20048;-80
2023/05/07 10:04:08;;;;;;;4.93;1.92;;;;;;;;;;5044690;28;20057;-80
2023/05/07 10:06:35;;;;;;;2.55;1.73;;;;;;;;;;5063127;28;20036;-80
2023/05/07 10:09:02;;;;;;;3.67;1.92;;;;;;;;;;5047900;28;20460;-79
2023/05/07 10:11:28;;;;;;;4.63;2.35;;;;;;;;;;5044371;28;20098;-79
2023/05/07 10:13:54;;;;;;;4.95;2.30;;;;;;;;;;5057520;28;20048;-79
2023/05/07 10:16:21;;;;;;;4.00;2.00;;;;;;;;;;5055766;28;21689;-79
2023/05/07 10:18:48;;;;;;;2.72;2.00;;;;;;;;;;5049774;28;20025;-80
2023/05/07 10:21:18;;;;;;;2.28;1.75;;;;;;;;;;5050835;28;20433;-79
2023/05/07 10:23:52;;;;;;;2.72;2.42;;;;;;;;;;5049016;28;20034;-78
2023/05/07 10:26:20;;;;;;;8.23;1.63;;;;;;;;;;5051611;28;20444;-79
2023/05/07 10:28:49;;;;;;;34.67;5.22;;;;;;;;;;5051960;28;20039;-82
2023/05/07 10:31:32;;;;;;;3.80;1.77;;;;;;;;;;5051170;28;20042;-80
2023/05/07 10:33:59;;;;;;;2.97;1.60;;;;;;;;;;5039641;28;20103;-83
2023/05/07 10:36:26;;;;;;;2.55;1.52;;;;;;;;;;5052825;28;20044;-84
2023/05/07 10:38:52;;;;;;;2.60;1.83;;;;;;;;;;5054195;28;20037;-86
2023/05/07 10:41:18;;;;;;;5.25;2.15;;;;;;;;;;5053145;28;20051;-83
2023/05/07 10:43:45;;;;;;;2.97;2.20;;;;;;;;;;5052522;28;20103;-83
2023/05/07 10:46:21;;;;;;;2.20;1.48;;;;;;;;;;5056907;28;20137;-84
2023/05/07 10:49:03;;;;;;;4.80;1.27;;;;;;;;;;5040526;28;20053;-84
2023/05/07 10:51:30;;;;;;;4.85;1.58;;;;;;;;;;5040128;28;20030;-85
2023/05/07 10:54:18;;;;;;;4.63;1.40;;;;;;;;;;5051635;28;20048;-84
2023/05/07 10:56:44;;;;;;;5.97;1.95;;;;;;;;;;5039311;28;20038;-84
2023/05/07 10:59:30;;;;;;;3.13;1.75;;;;;;;;;;5040461;28;20428;-84
2023/05/07 11:02:03;;;;;;;11.63;1.75;;;;;;;;;;5052443;28;20358;-82
2023/05/07 11:04:34;;;;;;;6.80;2.20;;;;;;;;;;5033314;28;20342;-84
2023/05/07 11:07:08;;;;;;;3.95;1.92;;;;;;;;;;5036836;28;20021;-82
2023/05/07 11:09:52;;;;;;;3.40;1.63;;;;;;;;;;5053330;28;20067;-83
2023/05/07 11:12:39;;;;;;;2.97;1.58;;;;;;;;;;5051245;28;20132;-81
2023/05/07 11:15:15;;;;;;;3.85;1.33;;;;;;;;;;5022053;28;20101;-82
2023/05/07 11:17:57;;;;;;;2.30;1.10;;;;;;;;;;5053021;28;20524;-82
2023/05/07 11:20:43;;;;;;;3.10;1.35;;;;;;;;;;5056552;28;20041;-81
2023/05/07 11:23:09;;;;;;;3.15;1.10;;;;;;;;;;5039995;28;20021;-83
2023/05/07 11:25:40;;;;;;;1.77;1.15;;;;;;;;;;5035931;28;20071;-83
2023/05/07 11:28:10;;;;;;;3.90;1.48;;;;;;;;;;5051074;28;20108;-82
2023/05/07 11:30:36;;;;;;;3.78;1.63;;;;;;;;;;5050518;28;20030;-83
2023/05/07 11:33:02;;;;;;;2.45;1.23;;;;;;;;;;5047274;28;20025;-83
2023/05/07 11:35:28;;;;;;;1.92;1.40;;;;;;;;;;5053358;28;20029;-82
2023/05/07 11:37:59;;;;;;;2.30;1.30;;;;;;;;;;5052838;28;20052;-81
2023/05/07 11:40:25;;;;;;;3.20;1.58;;;;;;;;;;5054820;28;20037;-83
2023/05/07 11:42:51;;;;;;;2.05;1.13;;;;;;;;;;5055978;28;20099;-83
2023/05/07 11:45:24;;;;;;;1.92;1.25;;;;;;;;;;5040734;28;20111;-82
2023/05/07 11:47:50;;;;;;;2.70;1.67;;;;;;;;;;5051563;28;20374;-82
2023/05/07 11:50:16;;;;;;;2.70;1.27;;;;;;;;;;5049668;28;20034;-83
2023/05/07 11:52:50;;;;;;;2.20;1.10;;;;;;;;;;5050558;28;20036;-84
2023/05/07 11:55:18;;;;;;;2.88;1.27;;;;;;;;;;5049482;28;20033;-82
2023/05/07 11:57:45;;;;;;;4.80;1.48;;;;;;;;;;5046422;28;20040;-83
2023/05/07 12:00:11;;;;;;;2.83;1.40;;;;;;;;;;5040370;28;20039;-83
2023/05/07 12:02:38;;;;;;;7.97;1.60;;;;;;;;;;5045276;28;20022;-83
2023/05/07 12:05:04;;;;;;;4.97;1.45;;;;;;;;;;5046887;28;20022;-83
2023/05/07 12:07:31;;;;;;;3.55;1.13;;;;;;;;;;5036066;28;20461;-82
2023/05/07 12:09:57;;;;;;;4.35;1.58;;;;;;;;;;5038302;28;20087;-83
2023/05/07 12:12:23;;;;;;;4.25;1.80;;;;;;;;;;5044331;28;20147;-82
2023/05/07 12:14:50;;;;;;;5.53;1.92;;;;;;;;;;5048734;28;20146;-84
2023/05/07 12:17:16;;;;;;;2.28;1.67;;;;;;;;;;5041601;28;20029;-83
2023/05/07 12:19:43;;;;;;;2.85;2.13;;;;;;;;;;5034124;28;20028;-81
2023/05/07 12:22:09;;;;;;;4.03;1.63;;;;;;;;;;5043158;28;20033;-80
2023/05/07 12:24:49;;;;;;;4.57;2.75;;;;;;;;;;5050607;28;20033;-82
2023/05/07 12:27:15;;;;;;;5.10;1.77;;;;;;;;;;5048817;28;20056;-81
2023/05/07 12:29:48;;;;;;;3.97;1.67;;;;;;;;;;5049096;28;20477;-82
2023/05/07 12:32:15;;;;;;;2.63;1.65;;;;;;;;;;5050588;28;20508;-82
2023/05/07 12:34:41;;;;;;;2.70;1.40;;;;;;;;;;5050468;28;20029;-82
2023/05/07 12:37:07;;;;;;;2.10;1.20;;;;;;;;;;5048876;28;20083;-82
2023/05/07 12:39:36;;;;;;;2.88;1.48;;;;;;;;;;5051350;28;20906;-81
2023/05/07 12:42:06;;;;;;;2.03;1.10;;;;;;;;;;5052395;28;20067;-80
2023/05/07 12:44:33;;;;;;;3.10;0.93;;;;;;;;;;5052335;28;20057;-80
2023/05/07 12:47:02;;;;;;;2.80;1.40;;;;;;;;;;5044277;28;20045;-84
2023/05/07 12:49:28;;;;;;;2.45;0.95;;;;;;;;;;5039775;28;20040;-83
2023/05/07 12:51:55;;;;;;;2.83;1.60;;;;;;;;;;5043039;28;20032;-82
2023/05/07 12:54:30;;;;;;;1.95;1.00;;;;;;;;;;5040486;28;20448;-83
2023/05/07 12:57:03;;;;;;;3.28;1.45;;;;;;;;;;5046753;28;20059;-83
2023/05/07 12:59:39;;;;;;;3.03;1.45;;;;;;;;;;5039169;28;20029;-85
2023/05/07 13:02:06;;;;;;;1.88;1.13;;;;;;;;;;5053806;28;20101;-84
2023/05/07 13:04:34;;;;;;;3.03;1.55;;;;;;;;;;5051538;28;20036;-83
2023/05/07 13:07:03;;;;;;;3.85;1.10;;;;;;;;;;5051021;28;20029;-84
2023/05/07 13:09:29;;;;;;;3.28;1.48;;;;;;;;;;5044003;28;20418;-82
2023/05/07 13:11:55;;;;;;;4.55;1.23;;;;;;;;;;5048346;28;20021;-82
2023/05/07 13:14:21;;;;;;;2.58;1.50;;;;;;;;;;5059595;28;20029;-82
2023/05/07 13:16:48;;;;;;;3.55;1.50;;;;;;;;;;5056559;28;20082;-78
2023/05/07 13:19:14;;;;;;;2.15;1.75;;;;;;;;;;5067560;28;20045;-78
2023/05/07 13:21:40;;;;;;;2.78;1.70;;;;;;;;;;5058354;28;20009;-78
2023/05/07 13:24:06;;;;;;;4.10;1.88;;;;;;;;;;5055858;28;20040;-77
2023/05/07 13:26:34;;;;;;;2.72;1.50;;;;;;;;;;5054857;28;20048;-80
2023/05/07 13:29:03;;;;;;;5.15;1.90;;;;;;;;;;5068090;28;20067;-83
2023/05/07 13:31:29;;;;;;;2.83;1.58;;;;;;;;;;5055892;28;20033;-84
2023/05/07 13:33:56;;;;;;;2.83;1.73;;;;;;;;;;5063935;28;20033;-79
2023/05/07 13:36:22;;;;;;;3.47;1.60;;;;;;;;;;5056741;28;20030;-79
2023/05/07 13:38:48;;;;;;;4.53;2.28;;;;;;;;;;5070114;28;20072;-78
2023/05/07 13:41:14;;;;;;;5.88;1.77;;;;;;;;;;5059153;28;20041;-77
2023/05/07 13:43:40;;;;;;;2.08;1.60;;;;;;;;;;5059364;28;20032;-78
2023/05/07 13:46:06;;;;;;;2.95;1.23;;;;;;;;;;5069997;28;20037;-78
2023/05/07 13:48:32;;;;;;;3.38;1.42;;;;;;;;;;5063020;28;20021;-79
2023/05/07 13:50:58;;;;;;;2.25;1.40;;;;;;;;;;5078798;28;20009;-78
2023/05/07 13:53:24;;;;;;;3.67;1.60;;;;;;;;;;5073739;28;20032;-79
2023/05/07 13:55:50;;;;;;;5.25;1.58;;;;;;;;;;5073705;28;20077;-78
2023/05/07 13:58:16;;;;;;;1.85;1.15;;;;;;;;;;5072534;28;20030;-78
2023/05/07 14:00:42;;;;;;;1.95;1.50;;;;;;;;;;5073393;28;20034;-78
2023/05/07 14:03:10;;;;;;;2.63;1.35;;;;;;;;;;5070536;28;20024;-80
2023/05/07 14:05:36;;;;;;;2.53;1.60;;;;;;;;;;5073161;28;20022;-79
2023/05/07 14:08:04;;;;;;;4.50;1.58;;;;;;;;;;5079124;28;20060;-78
2023/05/07 14:10:31;;;;;;;4.55;1.77;;;;;;;;;;5064322;28;20041;-78
2023/05/07 14:12:57;;;;;;;4.28;2.03;;;;;;;;;;5071462;28;20025;-79
2023/05/07 14:15:23;;;;;;;2.25;1.60;;;;;;;;;;5074435;28;20042;-79
2023/05/07 14:17:49;;;;;;;3.47;1.85;;;;;;;;;;5073146;28;20053;-78
2023/05/07 14:20:18;;;;;;;11.05;2.10;;;;;;;;;;5073942;28;20018;-78
2023/05/07 14:22:45;;;;;;;3.55;2.20;;;;;;;;;;5072694;28;20029;-78
2023/05/07 14:25:11;;;;;;;4.88;2.50;;;;;;;;;;5069102;28;20055;-77
2023/05/07 14:27:37;;;;;;;5.15;1.90;;;;;;;;;;5063221;28;20017;-77
2023/05/07 14:30:03;;;;;;;4.47;2.40;;;;;;;;;;5063234;28;20348;-78
2023/05/07 14:32:29;;;;;;;7.05;2.42;;;;;;;;;;5068523;28;20030;-78
2023/05/07 14:34:55;;;;;;;1.95;1.38;;;;;;;;;;5072193;28;20285;-79